sensor_id;sensor_type;location;lat;lon;timestamp;temperature;humidity
14884;DHT22;7534;50.762;7.000;2023-01-24T00:02:01;4.30;99.90
14884;DHT22;7534;50.762;7.000;2023-01-24T00:04:27;4.20;99.90
14884;DHT22;7534;50.762;7.000;2023-01-24T00:06:52;4.10;99.90
14884;DHT22;7534;50.762;7.000;2023-01-24T00:09:18;4.10;99.90
14884;DHT22;7534;50.762;7.000;2023-01-24T00:11:44;4.30;99.90
14884;DHT22;7534;50.762;7.000;2023-01-24T00:14:09;4.40;99.90
14884;DHT22;7534;50.762;7.000;2023-01-24T00:16:35;4.40;99.90
14884;DHT22;7534;50.762;7.000;2023-01-24T00:19:01;4.40;99.90
14884;DHT22;7534;50.762;7.000;2023-01-24T00:21:27;4.50;99.90
14884;DHT22;7534;50.762;7.000;2023-01-24T00:23:53;4.40;99.90
14884;DHT22;7534;50.762;7.000;2023-01-24T00:26:21;4.40;99.90
14884;DHT22;7534;50.762;7.000;2023-01-24T00:28:48;4.30;99.90
14884;DHT22;7534;50.762;7.000;2023-01-24T00:31:15;4.30;99.90
14884;DHT22;7534;50.762;7.000;2023-01-24T00:33:41;4.20;99.90
14884;DHT22;7534;50.762;7.000;2023-01-24T00:36:07;4.30;99.90
14884;DHT22;7534;50.762;7.000;2023-01-24T00:38:34;4.60;99.90
14884;DHT22;7534;50.762;7.000;2023-01-24T00:40:59;4.40;99.90
14884;DHT22;7534;50.762;7.000;2023-01-24T00:43:28;4.50;99.90
14884;DHT22;7534;50.762;7.000;2023-01-24T00:45:54;4.60;99.90
14884;DHT22;7534;50.762;7.000;2023-01-24T00:48:20;4.30;99.90
14884;DHT22;7534;50.762;7.000;2023-01-24T00:50:47;4.30;99.90
14884;DHT22;7534;50.762;7.000;2023-01-24T00:53:13;4.40;99.90
14884;DHT22;7534;50.762;7.000;2023-01-24T00:55:43;4.20;99.90
14884;DHT22;7534;50.762;7.000;2023-01-24T00:58:10;4.30;99.90
14884;DHT22;7534;50.762;7.000;2023-01-24T01:00:37;4.30;99.90
14884;DHT22;7534;50.762;7.000;2023-01-24T01:03:05;4.30;99.90
14884;DHT22;7534;50.762;7.000;2023-01-24T01:05:32;4.20;99.90
14884;DHT22;7534;50.762;7.000;2023-01-24T01:07:58;4.20;99.90
14884;DHT22;7534;50.762;7.000;2023-01-24T01:10:23;4.30;99.90
14884;DHT22;7534;50.762;7.000;2023-01-24T01:12:49;4.40;99.90
14884;DHT22;7534;50.762;7.000;2023-01-24T01:15:15;4.30;99.90
14884;DHT22;7534;50.762;7.000;2023-01-24T01:17:40;4.30;99.90
14884;DHT22;7534;50.762;7.000;2023-01-24T01:20:07;4.20;99.90
14884;DHT22;7534;50.762;7.000;2023-01-24T01:22:33;4.40;99.90
14884;DHT22;7534;50.762;7.000;2023-01-24T01:24:58;4.50;99.90
14884;DHT22;7534;50.762;7.000;2023-01-24T01:27:24;4.40;99.90
14884;DHT22;7534;50.762;7.000;2023-01-24T01:29:50;4.20;99.90
14884;DHT22;7534;50.762;7.000;2023-01-24T01:32:16;4.10;99.90
14884;DHT22;7534;50.762;7.000;2023-01-24T01:34:41;4.10;99.90
14884;DHT22;7534;50.762;7.000;2023-01-24T01:37:07;4.00;99.90
14884;DHT22;7534;50.762;7.000;2023-01-24T01:39:33;4.20;99.90
14884;DHT22;7534;50.762;7.000;2023-01-24T01:41:58;4.20;99.90
14884;DHT22;7534;50.762;7.000;2023-01-24T01:44:30;4.10;99.90
14884;DHT22;7534;50.762;7.000;2023-01-24T01:52:50;4.30;99.90
14884;DHT22;7534;50.762;7.000;2023-01-24T01:55:18;4.50;99.90
14884;DHT22;7534;50.762;7.000;2023-01-24T01:57:48;4.40;99.90
14884;DHT22;7534;50.762;7.000;2023-01-24T02:00:21;4.40;99.90
14884;DHT22;7534;50.762;7.000;2023-01-24T02:03:03;4.60;99.90
14884;DHT22;7534;50.762;7.000;2023-01-24T02:05:53;4.40;99.90
14884;DHT22;7534;50.762;7.000;2023-01-24T02:08:22;4.40;99.90
14884;DHT22;7534;50.762;7.000;2023-01-24T02:10:50;4.30;99.90
14884;DHT22;7534;50.762;7.000;2023-01-24T02:13:36;4.00;99.90
14884;DHT22;7534;50.762;7.000;2023-01-24T02:16:09;4.10;99.90
14884;DHT22;7534;50.762;7.000;2023-01-24T02:18:38;4.10;99.90
14884;DHT22;7534;50.762;7.000;2023-01-24T02:21:14;4.20;99.90
14884;DHT22;7534;50.762;7.000;2023-01-24T02:23:51;4.00;99.90
14884;DHT22;7534;50.762;7.000;2023-01-24T02:26:23;4.00;99.90
14884;DHT22;7534;50.762;7.000;2023-01-24T02:28:55;4.10;99.90
14884;DHT22;7534;50.762;7.000;2023-01-24T02:31:24;4.10;99.90
14884;DHT22;7534;50.762;7.000;2023-01-24T02:33:50;4.00;99.90
14884;DHT22;7534;50.762;7.000;2023-01-24T02:36:42;3.90;99.90
14884;DHT22;7534;50.762;7.000;2023-01-24T02:39:25;4.00;99.90
14884;DHT22;7534;50.762;7.000;2023-01-24T02:41:59;4.20;99.90
14884;DHT22;7534;50.762;7.000;2023-01-24T02:47:25;4.00;99.90
14884;DHT22;7534;50.762;7.000;2023-01-24T02:50:00;4.00;99.90
14884;DHT22;7534;50.762;7.000;2023-01-24T02:52:27;4.20;99.90
14884;DHT22;7534;50.762;7.000;2023-01-24T02:55:12;4.10;99.90
14884;DHT22;7534;50.762;7.000;2023-01-24T02:57:38;3.90;99.90
14884;DHT22;7534;50.762;7.000;2023-01-24T03:00:23;3.90;99.90
14884;DHT22;7534;50.762;7.000;2023-01-24T03:02:49;3.80;99.90
14884;DHT22;7534;50.762;7.000;2023-01-24T03:05:15;3.90;99.90
14884;DHT22;7534;50.762;7.000;2023-01-24T03:07:41;3.90;99.90
14884;DHT22;7534;50.762;7.000;2023-01-24T03:10:12;3.90;99.90
14884;DHT22;7534;50.762;7.000;2023-01-24T03:12:42;3.90;99.90
14884;DHT22;7534;50.762;7.000;2023-01-24T03:15:27;4.00;99.90
14884;DHT22;7534;50.762;7.000;2023-01-24T03:18:12;4.00;99.90
14884;DHT22;7534;50.762;7.000;2023-01-24T03:20:56;3.70;99.90
14884;DHT22;7534;50.762;7.000;2023-01-24T03:23:41;4.00;99.90
14884;DHT22;7534;50.762;7.000;2023-01-24T03:26:25;4.20;99.90
14884;DHT22;7534;50.762;7.000;2023-01-24T03:29:10;4.00;99.90
14884;DHT22;7534;50.762;7.000;2023-01-24T03:31:55;4.00;99.90
14884;DHT22;7534;50.762;7.000;2023-01-24T03:34:39;4.10;99.90
14884;DHT22;7534;50.762;7.000;2023-01-24T03:37:15;3.90;99.90
14884;DHT22;7534;50.762;7.000;2023-01-24T03:40:11;3.90;99.90
14884;DHT22;7534;50.762;7.000;2023-01-24T03:42:39;3.80;99.90
14884;DHT22;7534;50.762;7.000;2023-01-24T03:45:29;4.00;99.90
14884;DHT22;7534;50.762;7.000;2023-01-24T03:47:58;3.80;99.90
14884;DHT22;7534;50.762;7.000;2023-01-24T03:50:36;3.90;99.90
14884;DHT22;7534;50.762;7.000;2023-01-24T03:53:24;3.90;99.90
14884;DHT22;7534;50.762;7.000;2023-01-24T03:55:52;3.70;99.90
14884;DHT22;7534;50.762;7.000;2023-01-24T03:58:23;3.70;99.90
14884;DHT22;7534;50.762;7.000;2023-01-24T04:00:51;3.80;99.90
14884;DHT22;7534;50.762;7.000;2023-01-24T04:03:18;3.90;99.90
14884;DHT22;7534;50.762;7.000;2023-01-24T04:05:46;4.00;99.90
14884;DHT22;7534;50.762;7.000;2023-01-24T04:08:13;3.80;99.90
14884;DHT22;7534;50.762;7.000;2023-01-24T04:10:39;3.80;99.90
14884;DHT22;7534;50.762;7.000;2023-01-24T04:13:05;3.80;99.90
14884;DHT22;7534;50.762;7.000;2023-01-24T04:15:32;3.90;99.90
14884;DHT22;7534;50.762;7.000;2023-01-24T04:18:01;4.10;99.90
14884;DHT22;7534;50.762;7.000;2023-01-24T04:20:31;4.10;99.90
14884;DHT22;7534;50.762;7.000;2023-01-24T04:23:02;4.20;99.90
14884;DHT22;7534;50.762;7.000;2023-01-24T04:25:30;4.10;99.90
14884;DHT22;7534;50.762;7.000;2023-01-24T04:27:56;3.90;99.90
14884;DHT22;7534;50.762;7.000;2023-01-24T04:30:22;3.80;99.90
14884;DHT22;7534;50.762;7.000;2023-01-24T04:32:48;3.80;99.90
14884;DHT22;7534;50.762;7.000;2023-01-24T04:35:19;3.80;99.90
14884;DHT22;7534;50.762;7.000;2023-01-24T04:37:48;3.80;99.90
14884;DHT22;7534;50.762;7.000;2023-01-24T04:40:14;3.90;99.90
14884;DHT22;7534;50.762;7.000;2023-01-24T04:42:41;3.90;99.90
14884;DHT22;7534;50.762;7.000;2023-01-24T04:45:08;3.80;99.90
14884;DHT22;7534;50.762;7.000;2023-01-24T04:47:35;3.80;99.90
14884;DHT22;7534;50.762;7.000;2023-01-24T04:50:01;3.70;99.90
14884;DHT22;7534;50.762;7.000;2023-01-24T04:52:27;3.60;99.90
14884;DHT22;7534;50.762;7.000;2023-01-24T04:54:52;3.80;99.90
14884;DHT22;7534;50.762;7.000;2023-01-24T04:57:18;3.80;99.90
14884;DHT22;7534;50.762;7.000;2023-01-24T04:59:44;3.90;99.90
14884;DHT22;7534;50.762;7.000;2023-01-24T05:02:10;3.80;99.90
14884;DHT22;7534;50.762;7.000;2023-01-24T05:04:36;3.80;99.90
14884;DHT22;7534;50.762;7.000;2023-01-24T05:07:02;3.80;99.90
14884;DHT22;7534;50.762;7.000;2023-01-24T05:09:28;3.80;99.90
14884;DHT22;7534;50.762;7.000;2023-01-24T05:11:53;3.90;99.90
14884;DHT22;7534;50.762;7.000;2023-01-24T05:14:19;3.80;99.90
14884;DHT22;7534;50.762;7.000;2023-01-24T05:16:45;3.70;99.90
14884;DHT22;7534;50.762;7.000;2023-01-24T05:19:10;3.70;99.90
14884;DHT22;7534;50.762;7.000;2023-01-24T05:21:36;3.60;99.90
14884;DHT22;7534;50.762;7.000;2023-01-24T05:24:03;3.60;99.90
14884;DHT22;7534;50.762;7.000;2023-01-24T05:26:29;3.60;99.90
14884;DHT22;7534;50.762;7.000;2023-01-24T05:28:55;3.60;99.90
14884;DHT22;7534;50.762;7.000;2023-01-24T05:31:21;3.60;99.90
14884;DHT22;7534;50.762;7.000;2023-01-24T05:33:47;3.70;99.90
14884;DHT22;7534;50.762;7.000;2023-01-24T05:36:20;3.70;99.90
14884;DHT22;7534;50.762;7.000;2023-01-24T05:38:48;3.70;99.90
14884;DHT22;7534;50.762;7.000;2023-01-24T05:41:18;3.80;99.90
14884;DHT22;7534;50.762;7.000;2023-01-24T05:43:48;3.60;99.90
14884;DHT22;7534;50.762;7.000;2023-01-24T05:46:20;3.60;99.90
14884;DHT22;7534;50.762;7.000;2023-01-24T05:48:47;3.60;99.90
14884;DHT22;7534;50.762;7.000;2023-01-24T05:51:16;3.50;99.90
14884;DHT22;7534;50.762;7.000;2023-01-24T05:53:44;3.70;99.90
14884;DHT22;7534;50.762;7.000;2023-01-24T05:56:18;3.70;99.90
14884;DHT22;7534;50.762;7.000;2023-01-24T05:58:46;3.30;99.90
14884;DHT22;7534;50.762;7.000;2023-01-24T06:01:16;3.50;99.90
14884;DHT22;7534;50.762;7.000;2023-01-24T06:03:49;3.70;99.90
14884;DHT22;7534;50.762;7.000;2023-01-24T06:06:19;3.70;99.90
14884;DHT22;7534;50.762;7.000;2023-01-24T06:08:46;3.50;99.90
14884;DHT22;7534;50.762;7.000;2023-01-24T06:11:15;3.60;99.90
14884;DHT22;7534;50.762;7.000;2023-01-24T06:13:45;3.80;99.90
14884;DHT22;7534;50.762;7.000;2023-01-24T06:16:15;3.70;99.90
14884;DHT22;7534;50.762;7.000;2023-01-24T06:18:43;3.90;99.90
14884;DHT22;7534;50.762;7.000;2023-01-24T06:24:01;3.80;99.90
14884;DHT22;7534;50.762;7.000;2023-01-24T06:26:29;3.70;99.90
14884;DHT22;7534;50.762;7.000;2023-01-24T06:28:55;3.70;99.90
14884;DHT22;7534;50.762;7.000;2023-01-24T06:31:26;3.50;99.90
14884;DHT22;7534;50.762;7.000;2023-01-24T06:37:03;3.70;99.90
14884;DHT22;7534;50.762;7.000;2023-01-24T06:39:51;3.70;99.90
14884;DHT22;7534;50.762;7.000;2023-01-24T06:42:19;3.70;99.90
14884;DHT22;7534;50.762;7.000;2023-01-24T06:44:46;3.80;99.90
14884;DHT22;7534;50.762;7.000;2023-01-24T06:47:12;3.70;99.90
14884;DHT22;7534;50.762;7.000;2023-01-24T06:49:39;3.60;99.90
14884;DHT22;7534;50.762;7.000;2023-01-24T06:52:06;3.80;99.90
14884;DHT22;7534;50.762;7.000;2023-01-24T06:54:35;3.70;99.90
14884;DHT22;7534;50.762;7.000;2023-01-24T06:57:02;3.90;99.90
14884;DHT22;7534;50.762;7.000;2023-01-24T06:59:28;3.80;99.90
14884;DHT22;7534;50.762;7.000;2023-01-24T07:01:54;3.80;99.90
14884;DHT22;7534;50.762;7.000;2023-01-24T07:04:20;3.70;99.90
14884;DHT22;7534;50.762;7.000;2023-01-24T07:06:46;3.70;99.90
14884;DHT22;7534;50.762;7.000;2023-01-24T07:09:12;3.80;99.90
14884;DHT22;7534;50.762;7.000;2023-01-24T07:11:38;3.70;99.90
14884;DHT22;7534;50.762;7.000;2023-01-24T07:14:04;3.60;99.90
14884;DHT22;7534;50.762;7.000;2023-01-24T07:16:30;3.50;99.90
14884;DHT22;7534;50.762;7.000;2023-01-24T07:18:56;3.70;99.90
14884;DHT22;7534;50.762;7.000;2023-01-24T07:21:22;3.70;99.90
14884;DHT22;7534;50.762;7.000;2023-01-24T07:23:49;3.70;99.90
14884;DHT22;7534;50.762;7.000;2023-01-24T07:26:18;3.60;99.90
14884;DHT22;7534;50.762;7.000;2023-01-24T07:28:44;3.70;99.90
14884;DHT22;7534;50.762;7.000;2023-01-24T07:31:12;3.70;99.90
14884;DHT22;7534;50.762;7.000;2023-01-24T07:33:40;3.70;99.90
14884;DHT22;7534;50.762;7.000;2023-01-24T07:36:14;3.80;99.90
14884;DHT22;7534;50.762;7.000;2023-01-24T07:38:40;3.80;99.90
14884;DHT22;7534;50.762;7.000;2023-01-24T07:41:10;3.70;99.90
14884;DHT22;7534;50.762;7.000;2023-01-24T07:43:36;3.70;99.90
14884;DHT22;7534;50.762;7.000;2023-01-24T07:46:02;3.70;99.90
14884;DHT22;7534;50.762;7.000;2023-01-24T07:48:29;3.80;99.90
14884;DHT22;7534;50.762;7.000;2023-01-24T07:50:59;3.80;99.90
14884;DHT22;7534;50.762;7.000;2023-01-24T07:53:25;3.70;99.90
14884;DHT22;7534;50.762;7.000;2023-01-24T07:55:51;3.80;99.90
14884;DHT22;7534;50.762;7.000;2023-01-24T07:58:17;4.00;99.90
14884;DHT22;7534;50.762;7.000;2023-01-24T08:00:42;4.10;99.90
14884;DHT22;7534;50.762;7.000;2023-01-24T08:03:10;4.10;99.90
14884;DHT22;7534;50.762;7.000;2023-01-24T08:05:39;4.20;99.90
14884;DHT22;7534;50.762;7.000;2023-01-24T08:08:05;4.00;99.80
14884;DHT22;7534;50.762;7.000;2023-01-24T08:10:31;4.00;99.90
14884;DHT22;7534;50.762;7.000;2023-01-24T08:12:57;4.00;99.90
14884;DHT22;7534;50.762;7.000;2023-01-24T08:15:24;4.00;99.80
14884;DHT22;7534;50.762;7.000;2023-01-24T08:17:49;4.10;99.70
14884;DHT22;7534;50.762;7.000;2023-01-24T08:20:15;4.00;99.90
14884;DHT22;7534;50.762;7.000;2023-01-24T08:22:42;4.20;99.90
14884;DHT22;7534;50.762;7.000;2023-01-24T08:25:08;4.00;99.70
14884;DHT22;7534;50.762;7.000;2023-01-24T08:27:35;3.90;99.90
14884;DHT22;7534;50.762;7.000;2023-01-24T08:30:01;4.00;99.70
14884;DHT22;7534;50.762;7.000;2023-01-24T08:32:27;4.00;99.50
14884;DHT22;7534;50.762;7.000;2023-01-24T08:34:53;4.00;99.20
14884;DHT22;7534;50.762;7.000;2023-01-24T08:37:19;4.10;99.30
14884;DHT22;7534;50.762;7.000;2023-01-24T08:39:45;4.20;99.10
14884;DHT22;7534;50.762;7.000;2023-01-24T08:42:10;4.10;99.30
14884;DHT22;7534;50.762;7.000;2023-01-24T08:44:36;4.20;99.50
14884;DHT22;7534;50.762;7.000;2023-01-24T08:47:02;4.20;99.60
14884;DHT22;7534;50.762;7.000;2023-01-24T08:49:28;4.20;99.20
14884;DHT22;7534;50.762;7.000;2023-01-24T08:51:53;4.00;99.30
14884;DHT22;7534;50.762;7.000;2023-01-24T08:54:28;4.20;99.10
14884;DHT22;7534;50.762;7.000;2023-01-24T08:56:55;4.10;99.40
14884;DHT22;7534;50.762;7.000;2023-01-24T08:59:21;4.10;99.60
14884;DHT22;7534;50.762;7.000;2023-01-24T09:01:47;4.10;99.60
14884;DHT22;7534;50.762;7.000;2023-01-24T09:04:13;4.20;99.30
14884;DHT22;7534;50.762;7.000;2023-01-24T09:06:38;4.10;99.40
14884;DHT22;7534;50.762;7.000;2023-01-24T09:09:04;4.40;98.90
14884;DHT22;7534;50.762;7.000;2023-01-24T09:11:31;4.50;98.90
14884;DHT22;7534;50.762;7.000;2023-01-24T09:13:57;4.50;98.70
14884;DHT22;7534;50.762;7.000;2023-01-24T09:16:23;4.50;98.40
14884;DHT22;7534;50.762;7.000;2023-01-24T09:18:49;4.60;98.40
14884;DHT22;7534;50.762;7.000;2023-01-24T09:21:17;4.50;98.60
14884;DHT22;7534;50.762;7.000;2023-01-24T09:23:43;4.60;98.70
14884;DHT22;7534;50.762;7.000;2023-01-24T09:26:09;4.60;98.90
14884;DHT22;7534;50.762;7.000;2023-01-24T09:28:35;4.50;98.90
14884;DHT22;7534;50.762;7.000;2023-01-24T09:31:01;4.50;98.80
14884;DHT22;7534;50.762;7.000;2023-01-24T09:33:28;4.70;98.70
14884;DHT22;7534;50.762;7.000;2023-01-24T09:35:58;4.80;98.70
14884;DHT22;7534;50.762;7.000;2023-01-24T09:38:28;4.70;98.20
14884;DHT22;7534;50.762;7.000;2023-01-24T09:43:58;4.70;98.30
14884;DHT22;7534;50.762;7.000;2023-01-24T09:46:43;4.80;97.90
14884;DHT22;7534;50.762;7.000;2023-01-24T09:52:23;5.10;97.90
14884;DHT22;7534;50.762;7.000;2023-01-24T09:57:46;5.10;97.40
14884;DHT22;7534;50.762;7.000;2023-01-24T10:00:17;5.00;97.70
14884;DHT22;7534;50.762;7.000;2023-01-24T10:02:44;4.90;98.00
14884;DHT22;7534;50.762;7.000;2023-01-24T10:05:14;4.90;98.20
14884;DHT22;7534;50.762;7.000;2023-01-24T10:07:56;4.80;98.00
14884;DHT22;7534;50.762;7.000;2023-01-24T10:11:16;4.90;98.20
14884;DHT22;7534;50.762;7.000;2023-01-24T10:26:02;4.90;97.80
14884;DHT22;7534;50.762;7.000;2023-01-24T10:28:53;4.80;97.80
14884;DHT22;7534;50.762;7.000;2023-01-24T10:31:29;5.10;97.60
14884;DHT22;7534;50.762;7.000;2023-01-24T10:34:09;5.20;97.60
14884;DHT22;7534;50.762;7.000;2023-01-24T10:36:51;5.10;97.30
14884;DHT22;7534;50.762;7.000;2023-01-24T10:39:24;5.10;97.90
14884;DHT22;7534;50.762;7.000;2023-01-24T10:41:52;5.10;97.50
14884;DHT22;7534;50.762;7.000;2023-01-24T10:44:27;5.10;97.60
14884;DHT22;7534;50.762;7.000;2023-01-24T10:50:00;5.40;96.80
14884;DHT22;7534;50.762;7.000;2023-01-24T10:52:29;5.60;96.70
14884;DHT22;7534;50.762;7.000;2023-01-24T10:54:59;5.40;96.90
14884;DHT22;7534;50.762;7.000;2023-01-24T10:57:35;5.40;97.00
14884;DHT22;7534;50.762;7.000;2023-01-24T11:00:31;5.50;97.20
14884;DHT22;7534;50.762;7.000;2023-01-24T11:03:16;5.40;97.10
14884;DHT22;7534;50.762;7.000;2023-01-24T11:05:54;5.30;97.50
14884;DHT22;7534;50.762;7.000;2023-01-24T11:08:33;5.50;97.30
14884;DHT22;7534;50.762;7.000;2023-01-24T11:11:03;5.40;97.10
14884;DHT22;7534;50.762;7.000;2023-01-24T11:13:46;5.40;97.10
14884;DHT22;7534;50.762;7.000;2023-01-24T11:16:21;5.70;97.00
14884;DHT22;7534;50.762;7.000;2023-01-24T11:19:01;5.80;96.60
14884;DHT22;7534;50.762;7.000;2023-01-24T11:21:31;5.90;96.60
14884;DHT22;7534;50.762;7.000;2023-01-24T11:26:36;5.90;95.90
14884;DHT22;7534;50.762;7.000;2023-01-24T11:29:16;5.60;96.40
14884;DHT22;7534;50.762;7.000;2023-01-24T11:31:45;5.50;96.50
14884;DHT22;7534;50.762;7.000;2023-01-24T11:34:25;5.40;96.70
14884;DHT22;7534;50.762;7.000;2023-01-24T11:37:12;5.70;96.80
14884;DHT22;7534;50.762;7.000;2023-01-24T11:49:03;5.90;96.20
14884;DHT22;7534;50.762;7.000;2023-01-24T11:51:54;5.60;96.40
14884;DHT22;7534;50.762;7.000;2023-01-24T11:57:31;5.30;97.40
14884;DHT22;7534;50.762;7.000;2023-01-24T12:03:04;5.70;97.50
14884;DHT22;7534;50.762;7.000;2023-01-24T12:12:46;5.70;96.70
14884;DHT22;7534;50.762;7.000;2023-01-24T12:20:58;5.70;96.70
14884;DHT22;7534;50.762;7.000;2023-01-24T12:23:42;5.90;96.80
14884;DHT22;7534;50.762;7.000;2023-01-24T12:26:30;6.10;96.20
14884;DHT22;7534;50.762;7.000;2023-01-24T12:41:09;5.80;96.70
14884;DHT22;7534;50.762;7.000;2023-01-24T12:46:38;5.70;96.50
14884;DHT22;7534;50.762;7.000;2023-01-24T12:52:07;5.30;97.20
14884;DHT22;7534;50.762;7.000;2023-01-24T12:54:47;5.30;97.10
14884;DHT22;7534;50.762;7.000;2023-01-24T12:58:08;5.60;97.20
14884;DHT22;7534;50.762;7.000;2023-01-24T13:01:08;5.90;96.30
14884;DHT22;7534;50.762;7.000;2023-01-24T13:07:11;6.00;96.40
14884;DHT22;7534;50.762;7.000;2023-01-24T13:10:13;6.00;96.20
14884;DHT22;7534;50.762;7.000;2023-01-24T13:12:47;6.00;96.50
14884;DHT22;7534;50.762;7.000;2023-01-24T13:15:18;6.30;95.90
14884;DHT22;7534;50.762;7.000;2023-01-24T13:21:06;5.90;96.20
14884;DHT22;7534;50.762;7.000;2023-01-24T13:23:49;5.50;96.70
14884;DHT22;7534;50.762;7.000;2023-01-24T13:26:45;5.40;97.00
14884;DHT22;7534;50.762;7.000;2023-01-24T13:30:02;5.40;97.00
14884;DHT22;7534;50.762;7.000;2023-01-24T13:32:40;5.30;97.10
14884;DHT22;7534;50.762;7.000;2023-01-24T13:35:16;5.40;97.10
14884;DHT22;7534;50.762;7.000;2023-01-24T13:38:38;5.70;97.10
14884;DHT22;7534;50.762;7.000;2023-01-24T13:41:02;5.50;96.80
14884;DHT22;7534;50.762;7.000;2023-01-24T13:43:52;5.60;97.00
14884;DHT22;7534;50.762;7.000;2023-01-24T13:49:19;5.10;97.80
14884;DHT22;7534;50.762;7.000;2023-01-24T13:52:02;5.10;98.10
14884;DHT22;7534;50.762;7.000;2023-01-24T14:05:48;5.50;97.30
14884;DHT22;7534;50.762;7.000;2023-01-24T14:11:14;5.50;97.30
14884;DHT22;7534;50.762;7.000;2023-01-24T14:13:54;5.50;97.10
14884;DHT22;7534;50.762;7.000;2023-01-24T14:21:51;5.10;97.90
14884;DHT22;7534;50.762;7.000;2023-01-24T14:24:53;5.10;97.70
14884;DHT22;7534;50.762;7.000;2023-01-24T14:27:52;4.90;97.80
14884;DHT22;7534;50.762;7.000;2023-01-24T14:33:21;5.00;97.90
14884;DHT22;7534;50.762;7.000;2023-01-24T14:38:48;5.20;97.80
14884;DHT22;7534;50.762;7.000;2023-01-24T14:41:56;4.90;97.80
14884;DHT22;7534;50.762;7.000;2023-01-24T14:44:27;4.90;97.80
14884;DHT22;7534;50.762;7.000;2023-01-24T14:47:00;4.90;97.90
14884;DHT22;7534;50.762;7.000;2023-01-24T14:49:42;4.90;98.20
14884;DHT22;7534;50.762;7.000;2023-01-24T14:52:18;5.00;98.20
14884;DHT22;7534;50.762;7.000;2023-01-24T14:54:49;4.90;98.20
14884;DHT22;7534;50.762;7.000;2023-01-24T14:57:34;4.90;98.30
14884;DHT22;7534;50.762;7.000;2023-01-24T15:02:27;5.00;97.90
14884;DHT22;7534;50.762;7.000;2023-01-24T15:04:53;5.00;97.70
14884;DHT22;7534;50.762;7.000;2023-01-24T15:07:19;5.00;97.80
14884;DHT22;7534;50.762;7.000;2023-01-24T15:09:44;5.00;97.70
14884;DHT22;7534;50.762;7.000;2023-01-24T15:14:38;4.70;98.10
14884;DHT22;7534;50.762;7.000;2023-01-24T15:17:20;4.60;98.40
14884;DHT22;7534;50.762;7.000;2023-01-24T15:19:55;4.70;98.70
14884;DHT22;7534;50.762;7.000;2023-01-24T15:22:27;4.80;98.30
14884;DHT22;7534;50.762;7.000;2023-01-24T15:25:00;4.80;98.10
14884;DHT22;7534;50.762;7.000;2023-01-24T15:30:16;4.70;98.30
14884;DHT22;7534;50.762;7.000;2023-01-24T15:35:47;4.40;98.80
14884;DHT22;7534;50.762;7.000;2023-01-24T15:38:32;4.40;99.40
14884;DHT22;7534;50.762;7.000;2023-01-24T15:43:38;4.30;99.60
14884;DHT22;7534;50.762;7.000;2023-01-24T15:46:26;4.40;99.60
14884;DHT22;7534;50.762;7.000;2023-01-24T15:49:17;4.20;99.40
14884;DHT22;7534;50.762;7.000;2023-01-24T15:54:34;4.10;99.60
14884;DHT22;7534;50.762;7.000;2023-01-24T15:57:26;4.10;99.90
14884;DHT22;7534;50.762;7.000;2023-01-24T16:02:36;4.20;99.40
14884;DHT22;7534;50.762;7.000;2023-01-24T16:05:14;4.00;99.50
14884;DHT22;7534;50.762;7.000;2023-01-24T16:07:42;3.90;99.70
14884;DHT22;7534;50.762;7.000;2023-01-24T16:10:17;4.00;99.50
14884;DHT22;7534;50.762;7.000;2023-01-24T16:12:45;3.80;99.50
14884;DHT22;7534;50.762;7.000;2023-01-24T16:15:17;3.80;99.70
14884;DHT22;7534;50.762;7.000;2023-01-24T16:17:45;3.90;99.60
14884;DHT22;7534;50.762;7.000;2023-01-24T16:20:21;4.00;99.20
14884;DHT22;7534;50.762;7.000;2023-01-24T16:22:52;4.10;98.90
14884;DHT22;7534;50.762;7.000;2023-01-24T16:25:19;4.30;98.60
14884;DHT22;7534;50.762;7.000;2023-01-24T16:27:48;4.20;98.60
14884;DHT22;7534;50.762;7.000;2023-01-24T16:30:22;4.20;98.50
14884;DHT22;7534;50.762;7.000;2023-01-24T16:32:50;4.10;98.90
14884;DHT22;7534;50.762;7.000;2023-01-24T16:35:16;4.10;99.20
14884;DHT22;7534;50.762;7.000;2023-01-24T16:37:43;4.10;99.60
14884;DHT22;7534;50.762;7.000;2023-01-24T16:40:10;4.20;99.10
14884;DHT22;7534;50.762;7.000;2023-01-24T16:42:42;4.10;99.40
14884;DHT22;7534;50.762;7.000;2023-01-24T16:45:18;4.10;99.50
14884;DHT22;7534;50.762;7.000;2023-01-24T16:47:45;3.90;99.50
14884;DHT22;7534;50.762;7.000;2023-01-24T16:50:12;4.10;99.20
14884;DHT22;7534;50.762;7.000;2023-01-24T16:52:39;4.00;99.00
14884;DHT22;7534;50.762;7.000;2023-01-24T16:55:06;4.00;99.30
14884;DHT22;7534;50.762;7.000;2023-01-24T16:57:33;3.90;99.50
14884;DHT22;7534;50.762;7.000;2023-01-24T16:59:58;4.10;99.50
14884;DHT22;7534;50.762;7.000;2023-01-24T17:02:24;4.10;99.30
14884;DHT22;7534;50.762;7.000;2023-01-24T17:04:50;4.10;99.40
14884;DHT22;7534;50.762;7.000;2023-01-24T17:07:16;4.00;99.20
14884;DHT22;7534;50.762;7.000;2023-01-24T17:09:42;4.00;99.40
14884;DHT22;7534;50.762;7.000;2023-01-24T17:12:08;3.90;99.30
14884;DHT22;7534;50.762;7.000;2023-01-24T17:14:34;3.90;99.70
14884;DHT22;7534;50.762;7.000;2023-01-24T17:17:00;3.80;99.70
14884;DHT22;7534;50.762;7.000;2023-01-24T17:19:28;3.80;99.80
14884;DHT22;7534;50.762;7.000;2023-01-24T17:21:54;4.10;99.50
14884;DHT22;7534;50.762;7.000;2023-01-24T17:24:19;4.10;99.50
14884;DHT22;7534;50.762;7.000;2023-01-24T17:26:48;4.10;99.30
14884;DHT22;7534;50.762;7.000;2023-01-24T17:29:15;4.10;99.20
14884;DHT22;7534;50.762;7.000;2023-01-24T17:31:41;4.00;99.50
14884;DHT22;7534;50.762;7.000;2023-01-24T17:34:06;3.90;99.50
14884;DHT22;7534;50.762;7.000;2023-01-24T17:36:32;3.90;99.60
14884;DHT22;7534;50.762;7.000;2023-01-24T17:39:02;3.90;99.70
14884;DHT22;7534;50.762;7.000;2023-01-24T17:41:28;3.80;99.40
14884;DHT22;7534;50.762;7.000;2023-01-24T17:43:54;3.70;99.40
14884;DHT22;7534;50.762;7.000;2023-01-24T17:46:21;3.70;99.70
14884;DHT22;7534;50.762;7.000;2023-01-24T17:48:47;3.70;99.70
14884;DHT22;7534;50.762;7.000;2023-01-24T17:51:14;3.50;99.70
14884;DHT22;7534;50.762;7.000;2023-01-24T17:53:43;3.70;99.70
14884;DHT22;7534;50.762;7.000;2023-01-24T17:56:10;3.80;99.50
14884;DHT22;7534;50.762;7.000;2023-01-24T17:58:38;3.70;99.70
14884;DHT22;7534;50.762;7.000;2023-01-24T18:01:05;3.80;99.70
14884;DHT22;7534;50.762;7.000;2023-01-24T18:03:33;3.80;99.50
14884;DHT22;7534;50.762;7.000;2023-01-24T18:06:04;3.70;99.80
14884;DHT22;7534;50.762;7.000;2023-01-24T18:08:31;3.80;99.90
14884;DHT22;7534;50.762;7.000;2023-01-24T18:10:57;3.80;99.50
14884;DHT22;7534;50.762;7.000;2023-01-24T18:13:23;3.80;99.10
14884;DHT22;7534;50.762;7.000;2023-01-24T18:16:02;3.60;99.70
14884;DHT22;7534;50.762;7.000;2023-01-24T18:18:30;3.70;99.40
14884;DHT22;7534;50.762;7.000;2023-01-24T18:21:06;3.70;99.10
14884;DHT22;7534;50.762;7.000;2023-01-24T18:23:36;3.70;99.20
14884;DHT22;7534;50.762;7.000;2023-01-24T18:26:03;3.60;99.50
14884;DHT22;7534;50.762;7.000;2023-01-24T18:28:31;3.70;99.80
14884;DHT22;7534;50.762;7.000;2023-01-24T18:30:59;3.60;99.80
14884;DHT22;7534;50.762;7.000;2023-01-24T18:33:46;3.60;99.70
14884;DHT22;7534;50.762;7.000;2023-01-24T18:36:15;3.50;99.90
14884;DHT22;7534;50.762;7.000;2023-01-24T18:38:44;3.50;99.90
14884;DHT22;7534;50.762;7.000;2023-01-24T18:41:11;3.60;99.80
14884;DHT22;7534;50.762;7.000;2023-01-24T18:43:38;3.50;99.70
14884;DHT22;7534;50.762;7.000;2023-01-24T18:46:06;3.50;99.80
14884;DHT22;7534;50.762;7.000;2023-01-24T18:48:35;3.60;99.90
14884;DHT22;7534;50.762;7.000;2023-01-24T18:51:13;3.70;99.60